Souda — SVBH5 — position and weather

sailwx.info

Track history (hours):
 
Tides and Currents Weather Stations Pressure Air Temp Water Temp Dewpoint Dewpoint Depression Visibility Wind Speed Wind Dir Waves Ship Positions

Souda

Last reported at 2017-May-29 03:37 UTC. Time now 2017-May-30 01:27 UTC.
Position N 37°55' E 023°05'.

Length 88 m; draft 6 m.

Type: Tanker. MMSI: 241109000.

Date/timePositionNaut miles runAvg speedWind from/ knotsBaromVisibWave heightAir tempDewpointWater temp
2017-May-29 03:37N 37°55' E 023°05'0 1.7
2017-May-29 03:25N 37°55' E 023°06'0 0.2
2017-May-29 00:23N 37°55' E 023°06'0 0.0
2017-May-28 20:59N 37°55' E 023°06'0 0.0
2017-May-28 17:08N 37°55' E 023°06'0 0.0
2017-May-28 15:59N 37°55' E 023°06'0 0.0
2017-May-28 12:23N 37°55' E 023°06'0 0.0
2017-May-28 08:53N 37°55' E 023°06'0 0.2
2017-May-28 08:26N 37°55' E 023°06'0 0.1
2017-May-28 07:59N 37°55' E 023°06'0 0.0
2017-May-28 02:11N 37°55' E 023°06'0 0.0
2017-May-27 21:44N 37°55' E 023°06'0 0.1
2017-May-27 21:29N 37°55' E 023°06'0 0.0
2017-May-27 20:08N 37°55' E 023°06'0 0.0
2017-May-27 19:58N 37°55' E 023°06'0 0.0
2017-May-27 17:04N 37°55' E 023°06'0 0.2
2017-May-27 16:54N 37°55' E 023°06'1 2.7
2017-May-27 16:30N 37°54' E 023°07'4 8.4
2017-May-27 16:00N 37°53' E 023°12'4 8.7
2017-May-27 15:30N 37°52' E 023°18'4 8.6
2017-May-27 15:01N 37°51' E 023°23'8 8.0
2017-May-27 14:00N 37°50' E 023°33'4 7.7
2017-May-27 13:30N 37°51' E 023°38'4 8.0
2017-May-27 13:00N 37°48' E 023°41'4 8.4
2017-May-27 12:31N 37°44' E 023°43'4 8.6
2017-May-27 12:01N 37°40' E 023°45'4 8.7
2017-May-27 11:30N 37°36' E 023°47'  
2017-May-24 22:45N 37°23' E 023°48'2 7.8
2017-May-24 22:30N 37°25' E 023°47'4 7.7
2017-May-24 22:00N 37°28' E 023°46'4 7.9
2017-May-24 21:30N 37°32' E 023°45'4 7.8
2017-May-24 21:00N 37°36' E 023°43'4 7.7
2017-May-24 20:30N 37°40' E 023°41'4 7.7
2017-May-24 20:00N 37°43' E 023°39'4 7.8
2017-May-24 19:30N 37°47' E 023°38'4 7.7
2017-May-24 19:00N 37°50' E 023°36'4 7.8
2017-May-24 18:30N 37°54' E 023°37'3 6.7
2017-May-24 18:00N 37°57' E 023°34'3 6.5
2017-May-24 17:30N 38°00' E 023°33'1 2.5
2017-May-24 17:00N 38°01' E 023°32'0 0.0
2017-May-24 16:30N 38°01' E 023°32'0 0.0
2017-May-24 16:00N 38°01' E 023°32'0 0.0
2017-May-24 15:30N 38°01' E 023°32'0 0.0
2017-May-24 15:00N 38°01' E 023°32'0 0.0
2017-May-24 14:30N 38°01' E 023°32'0 0.0
2017-May-24 13:30N 38°01' E 023°32'0 0.0
2017-May-24 13:00N 38°01' E 023°32'0 0.0
2017-May-24 12:30N 38°01' E 023°32'0 0.0
2017-May-24 12:00N 38°01' E 023°32'0 0.0
2017-May-24 11:30N 38°01' E 023°32'0 0.0
2017-May-24 11:00N 38°01' E 023°32'0 0.0
2017-May-24 10:30N 38°01' E 023°32'0 0.0
2017-May-24 10:00N 38°01' E 023°32'0 0.0
2017-May-24 09:30N 38°01' E 023°32'0 0.0
2017-May-24 09:00N 38°01' E 023°32'1 2.3
2017-May-24 08:30N 38°02' E 023°31'0 0.2
2017-May-24 07:44N 38°02' E 023°31'0 0.0
2017-May-24 07:29N 38°02' E 023°31'0 0.0
2017-May-24 06:02N 38°02' E 023°31'0 0.0
2017-May-24 05:44N 38°02' E 023°31'0 0.0
2017-May-24 05:23N 38°02' E 023°31'0 0.0
2017-May-24 04:47N 38°02' E 023°31'0 0.0
2017-May-24 04:29N 38°02' E 023°31'0 0.0
2017-May-24 03:56N 38°02' E 023°31'0 0.0
2017-May-24 03:29N 38°02' E 023°31'0 0.0
2017-May-24 02:53N 38°02' E 023°31'0 0.0
2017-May-24 02:29N 38°02' E 023°31'0 0.0
2017-May-24 01:35N 38°02' E 023°31'0 0.0
2017-May-24 01:20N 38°02' E 023°31'0 0.0
2017-May-24 00:56N 38°02' E 023°31'0 0.0
2017-May-24 00:26N 38°02' E 023°31'0 0.0
2017-May-23 23:53N 38°02' E 023°31'0 0.0
2017-May-23 23:20N 38°02' E 023°31'0 0.0
2017-May-23 22:56N 38°02' E 023°31'0 0.0
2017-May-23 22:26N 38°02' E 023°31'0 0.0
2017-May-23 21:59N 38°02' E 023°31'0 0.0
2017-May-23 21:29N 38°02' E 023°31'0 0.0
2017-May-23 20:59N 38°02' E 023°31'0 0.0
2017-May-23 20:29N 38°02' E 023°31'0 0.0
2017-May-23 19:59N 38°02' E 023°31'0 0.0
2017-May-23 19:29N 38°02' E 023°31'0 0.0
2017-May-23 18:59N 38°02' E 023°31'0 0.0
2017-May-23 18:29N 38°02' E 023°31'0 0.0
2017-May-23 17:56N 38°02' E 023°31'0 0.0
2017-May-23 17:29N 38°02' E 023°31'0 0.0
2017-May-23 16:59N 38°02' E 023°31'0 0.0
2017-May-23 16:20N 38°02' E 023°31'0 0.0
2017-May-23 15:59N 38°02' E 023°31'0 0.0
2017-May-23 15:29N 38°02' E 023°31'0 0.0
2017-May-23 14:59N 38°02' E 023°31'0 0.0
2017-May-23 14:01N 38°02' E 023°31'1 1.0
2017-May-23 13:30N 38°02' E 023°31'1 2.0
2017-May-23 13:01N 38°01' E 023°32'4 7.0
2017-May-23 12:30N 37°58' E 023°33'3 6.0
2017-May-23 12:00N 37°55' E 023°35'1 2.2
2017-May-23 11:30N 37°54' E 023°36'4 8.2
2017-May-23 11:00N 37°51' E 023°38'4 8.7
2017-May-23 10:30N 37°47' E 023°41'4 8.7
2017-May-23 10:00N 37°43' E 023°44'5 8.9
2017-May-23 09:30N 37°39' E 023°47'  
2017-May-20 13:59N 37°36' E 023°44'3 7.2
2017-May-20 13:30N 37°39' E 023°43'4 7.2
2017-May-20 13:00N 37°43' E 023°41'4 7.2
2017-May-20 12:30N 37°46' E 023°39'4 7.1
2017-May-20 12:00N 37°49' E 023°37'4 7.2
2017-May-20 11:30N 37°53' E 023°36'4 7.5
2017-May-20 11:00N 37°57' E 023°36'3 6.6
2017-May-20 10:30N 37°58' E 023°33'3 6.7
2017-May-20 10:01N 38°01' E 023°35'3 5.3
2017-May-20 09:30N 38°01' E 023°31'1 1.7
2017-May-20 09:00N 38°02' E 023°31'0 0.4
2017-May-20 08:28N 38°02' E 023°31'0 0.0
2017-May-20 07:55N 38°02' E 023°31'0 0.0
2017-May-20 07:30N 38°02' E 023°31'0 0.0
2017-May-20 07:00N 38°02' E 023°31'0 0.0
2017-May-20 06:30N 38°02' E 023°31'0 0.0
2017-May-20 06:00N 38°02' E 023°31'0 0.0
2017-May-20 05:30N 38°02' E 023°31'0 0.0
2017-May-20 05:00N 38°02' E 023°31'0 0.0
2017-May-20 04:31N 38°02' E 023°31'0 0.0
2017-May-20 04:00N 38°02' E 023°31'0 0.0
2017-May-20 03:30N 38°02' E 023°31'0 0.0
2017-May-20 03:01N 38°02' E 023°31'0 0.0
2017-May-20 02:30N 38°02' E 023°31'0 0.0
2017-May-20 02:01N 38°02' E 023°31'0 0.0
2017-May-20 01:30N 38°02' E 023°31'0 0.0
2017-May-20 01:00N 38°02' E 023°31'0 0.0
2017-May-20 00:30N 38°02' E 023°31'0 0.0
2017-May-20 00:00N 38°02' E 023°31'0 0.0
2017-May-19 23:30N 38°02' E 023°31'0 0.0
2017-May-19 23:00N 38°02' E 023°31'0 0.0
2017-May-19 22:30N 38°02' E 023°31'0 0.0
2017-May-19 22:01N 38°02' E 023°31'0 0.0
2017-May-19 21:30N 38°02' E 023°31'0 0.0
2017-May-19 21:01N 38°02' E 023°31'0 0.0
2017-May-19 20:31N 38°02' E 023°31'0 0.0
2017-May-19 20:00N 38°02' E 023°31'0 0.0
2017-May-19 19:30N 38°02' E 023°31'0 0.0
2017-May-19 19:00N 38°02' E 023°31'0 0.0
2017-May-19 18:30N 38°02' E 023°31'0 0.0
2017-May-19 18:00N 38°02' E 023°31'0 0.0
2017-May-19 17:31N 38°02' E 023°31'0 0.0
2017-May-19 17:00N 38°02' E 023°31'0 0.0
2017-May-19 16:30N 38°02' E 023°31'0 0.0
2017-May-19 16:00N 38°02' E 023°31'0 0.0
2017-May-19 15:30N 38°02' E 023°31'0 0.0
2017-May-19 15:00N 38°02' E 023°31'0 0.0
2017-May-19 14:00N 38°02' E 023°31'0 0.0
2017-May-19 13:30N 38°02' E 023°31'0 0.0
2017-May-19 13:00N 38°02' E 023°31'0 0.0
2017-May-19 12:30N 38°02' E 023°31'0 0.5
2017-May-19 12:00N 38°02' E 023°31'0 0.7
2017-May-19 11:30N 38°02' E 023°31'0 0.0
2017-May-19 11:00N 38°02' E 023°31'0 0.0
2017-May-19 10:30N 38°02' E 023°31'0 0.0
2017-May-19 10:01N 38°02' E 023°31'0 0.0
2017-May-19 09:30N 38°02' E 023°31'0 0.1
2017-May-19 09:01N 38°02' E 023°31'0 0.2
2017-May-19 08:30N 38°02' E 023°31'1 2.1
2017-May-19 08:00N 38°01' E 023°32'3 6.6
2017-May-19 07:30N 37°58' E 023°33'3 6.9
2017-May-19 07:01N 37°55' E 023°36'3 6.7
2017-May-19 06:30N 37°52' E 023°37'4 8.6
2017-May-19 06:00N 37°49' E 023°40'4 8.6
2017-May-19 05:30N 37°45' E 023°43'4 8.7
2017-May-19 05:00N 37°41' E 023°46'  
Track history (hours):
 
Tides and Currents Weather Stations Pressure Air Temp Water Temp Dewpoint Dewpoint Depression Visibility Wind Speed Wind Dir Waves Ship Positions

Souda

Last reported at 2017-May-29 03:37 UTC. Time now 2017-May-30 01:27 UTC.
Position N 37°55' E 023°05'.

Length 88 m; draft 6 m.

Type: Tanker. MMSI: 241109000.

Date/timePositionNaut miles runAvg speedWind from/ knotsBaromVisibWave heightAir tempDewpointWater temp
2017-May-29 03:37N 37°55' E 023°05'0 1.7
2017-May-29 03:25N 37°55' E 023°06'0 0.2
2017-May-29 00:23N 37°55' E 023°06'0 0.0
2017-May-28 20:59N 37°55' E 023°06'0 0.0
2017-May-28 17:08N 37°55' E 023°06'0 0.0
2017-May-28 15:59N 37°55' E 023°06'0 0.0
2017-May-28 12:23N 37°55' E 023°06'0 0.0
2017-May-28 08:53N 37°55' E 023°06'0 0.2
2017-May-28 08:26N 37°55' E 023°06'0 0.1
2017-May-28 07:59N 37°55' E 023°06'0 0.0
2017-May-28 02:11N 37°55' E 023°06'0 0.0
2017-May-27 21:44N 37°55' E 023°06'0 0.1
2017-May-27 21:29N 37°55' E 023°06'0 0.0
2017-May-27 20:08N 37°55' E 023°06'0 0.0
2017-May-27 19:58N 37°55' E 023°06'0 0.0
2017-May-27 17:04N 37°55' E 023°06'0 0.2
2017-May-27 16:54N 37°55' E 023°06'1 2.7
2017-May-27 16:30N 37°54' E 023°07'4 8.4
2017-May-27 16:00N 37°53' E 023°12'4 8.7
2017-May-27 15:30N 37°52' E 023°18'4 8.6
2017-May-27 15:01N 37°51' E 023°23'8 8.0
2017-May-27 14:00N 37°50' E 023°33'4 7.7
2017-May-27 13:30N 37°51' E 023°38'4 8.0
2017-May-27 13:00N 37°48' E 023°41'4 8.4
2017-May-27 12:31N 37°44' E 023°43'4 8.6
2017-May-27 12:01N 37°40' E 023°45'4 8.7
2017-May-27 11:30N 37°36' E 023°47'  
2017-May-24 22:45N 37°23' E 023°48'2 7.8
2017-May-24 22:30N 37°25' E 023°47'4 7.7
2017-May-24 22:00N 37°28' E 023°46'4 7.9
2017-May-24 21:30N 37°32' E 023°45'4 7.8
2017-May-24 21:00N 37°36' E 023°43'4 7.7
2017-May-24 20:30N 37°40' E 023°41'4 7.7
2017-May-24 20:00N 37°43' E 023°39'4 7.8
2017-May-24 19:30N 37°47' E 023°38'4 7.7
2017-May-24 19:00N 37°50' E 023°36'4 7.8
2017-May-24 18:30N 37°54' E 023°37'3 6.7
2017-May-24 18:00N 37°57' E 023°34'3 6.5
2017-May-24 17:30N 38°00' E 023°33'1 2.5
2017-May-24 17:00N 38°01' E 023°32'0 0.0
2017-May-24 16:30N 38°01' E 023°32'0 0.0
2017-May-24 16:00N 38°01' E 023°32'0 0.0
2017-May-24 15:30N 38°01' E 023°32'0 0.0
2017-May-24 15:00N 38°01' E 023°32'0 0.0
2017-May-24 14:30N 38°01' E 023°32'0 0.0
2017-May-24 13:30N 38°01' E 023°32'0 0.0
2017-May-24 13:00N 38°01' E 023°32'0 0.0
2017-May-24 12:30N 38°01' E 023°32'0 0.0
2017-May-24 12:00N 38°01' E 023°32'0 0.0
2017-May-24 11:30N 38°01' E 023°32'0 0.0
2017-May-24 11:00N 38°01' E 023°32'0 0.0
2017-May-24 10:30N 38°01' E 023°32'0 0.0
2017-May-24 10:00N 38°01' E 023°32'0 0.0
2017-May-24 09:30N 38°01' E 023°32'0 0.0
2017-May-24 09:00N 38°01' E 023°32'1 2.3
2017-May-24 08:30N 38°02' E 023°31'0 0.2
2017-May-24 07:44N 38°02' E 023°31'0 0.0
2017-May-24 07:29N 38°02' E 023°31'0 0.0
2017-May-24 06:02N 38°02' E 023°31'0 0.0
2017-May-24 05:44N 38°02' E 023°31'0 0.0
2017-May-24 05:23N 38°02' E 023°31'0 0.0
2017-May-24 04:47N 38°02' E 023°31'0 0.0
2017-May-24 04:29N 38°02' E 023°31'0 0.0
2017-May-24 03:56N 38°02' E 023°31'0 0.0
2017-May-24 03:29N 38°02' E 023°31'0 0.0
2017-May-24 02:53N 38°02' E 023°31'0 0.0
2017-May-24 02:29N 38°02' E 023°31'0 0.0
2017-May-24 01:35N 38°02' E 023°31'0 0.0
2017-May-24 01:20N 38°02' E 023°31'0 0.0
2017-May-24 00:56N 38°02' E 023°31'0 0.0
2017-May-24 00:26N 38°02' E 023°31'0 0.0
2017-May-23 23:53N 38°02' E 023°31'0 0.0
2017-May-23 23:20N 38°02' E 023°31'0 0.0
2017-May-23 22:56N 38°02' E 023°31'0 0.0
2017-May-23 22:26N 38°02' E 023°31'0 0.0
2017-May-23 21:59N 38°02' E 023°31'0 0.0
2017-May-23 21:29N 38°02' E 023°31'0 0.0
2017-May-23 20:59N 38°02' E 023°31'0 0.0
2017-May-23 20:29N 38°02' E 023°31'0 0.0
2017-May-23 19:59N 38°02' E 023°31'0 0.0
2017-May-23 19:29N 38°02' E 023°31'0 0.0
2017-May-23 18:59N 38°02' E 023°31'0 0.0
2017-May-23 18:29N 38°02' E 023°31'0 0.0
2017-May-23 17:56N 38°02' E 023°31'0 0.0
2017-May-23 17:29N 38°02' E 023°31'0 0.0
2017-May-23 16:59N 38°02' E 023°31'0 0.0
2017-May-23 16:20N 38°02' E 023°31'0 0.0
2017-May-23 15:59N 38°02' E 023°31'0 0.0
2017-May-23 15:29N 38°02' E 023°31'0 0.0
2017-May-23 14:59N 38°02' E 023°31'0 0.0
2017-May-23 14:01N 38°02' E 023°31'1 1.0
2017-May-23 13:30N 38°02' E 023°31'1 2.0
2017-May-23 13:01N 38°01' E 023°32'4 7.0
2017-May-23 12:30N 37°58' E 023°33'3 6.0
2017-May-23 12:00N 37°55' E 023°35'1 2.2
2017-May-23 11:30N 37°54' E 023°36'4 8.2
2017-May-23 11:00N 37°51' E 023°38'4 8.7
2017-May-23 10:30N 37°47' E 023°41'4 8.7
2017-May-23 10:00N 37°43' E 023°44'5 8.9
2017-May-23 09:30N 37°39' E 023°47'  
2017-May-20 13:59N 37°36' E 023°44'3 7.2
2017-May-20 13:30N 37°39' E 023°43'4 7.2
2017-May-20 13:00N 37°43' E 023°41'4 7.2
2017-May-20 12:30N 37°46' E 023°39'4 7.1
2017-May-20 12:00N 37°49' E 023°37'4 7.2
2017-May-20 11:30N 37°53' E 023°36'4 7.5
2017-May-20 11:00N 37°57' E 023°36'3 6.6
2017-May-20 10:30N 37°58' E 023°33'3 6.7
2017-May-20 10:01N 38°01' E 023°35'3 5.3
2017-May-20 09:30N 38°01' E 023°31'1 1.7
2017-May-20 09:00N 38°02' E 023°31'0 0.4
2017-May-20 08:28N 38°02' E 023°31'0 0.0
2017-May-20 07:55N 38°02' E 023°31'0 0.0
2017-May-20 07:30N 38°02' E 023°31'0 0.0
2017-May-20 07:00N 38°02' E 023°31'0 0.0
2017-May-20 06:30N 38°02' E 023°31'0 0.0
2017-May-20 06:00N 38°02' E 023°31'0 0.0
2017-May-20 05:30N 38°02' E 023°31'0 0.0
2017-May-20 05:00N 38°02' E 023°31'0 0.0
2017-May-20 04:31N 38°02' E 023°31'0 0.0
2017-May-20 04:00N 38°02' E 023°31'0 0.0
2017-May-20 03:30N 38°02' E 023°31'0 0.0
2017-May-20 03:01N 38°02' E 023°31'0 0.0
2017-May-20 02:30N 38°02' E 023°31'0 0.0
2017-May-20 02:01N 38°02' E 023°31'0 0.0
2017-May-20 01:30N 38°02' E 023°31'0 0.0
2017-May-20 01:00N 38°02' E 023°31'0 0.0
2017-May-20 00:30N 38°02' E 023°31'0 0.0
2017-May-20 00:00N 38°02' E 023°31'0 0.0
2017-May-19 23:30N 38°02' E 023°31'0 0.0
2017-May-19 23:00N 38°02' E 023°31'0 0.0
2017-May-19 22:30N 38°02' E 023°31'0 0.0
2017-May-19 22:01N 38°02' E 023°31'0 0.0
2017-May-19 21:30N 38°02' E 023°31'0 0.0
2017-May-19 21:01N 38°02' E 023°31'0 0.0
2017-May-19 20:31N 38°02' E 023°31'0 0.0
2017-May-19 20:00N 38°02' E 023°31'0 0.0
2017-May-19 19:30N 38°02' E 023°31'0 0.0
2017-May-19 19:00N 38°02' E 023°31'0 0.0
2017-May-19 18:30N 38°02' E 023°31'0 0.0
2017-May-19 18:00N 38°02' E 023°31'0 0.0
2017-May-19 17:31N 38°02' E 023°31'0 0.0
2017-May-19 17:00N 38°02' E 023°31'0 0.0
2017-May-19 16:30N 38°02' E 023°31'0 0.0
2017-May-19 16:00N 38°02' E 023°31'0 0.0
2017-May-19 15:30N 38°02' E 023°31'0 0.0
2017-May-19 15:00N 38°02' E 023°31'0 0.0
2017-May-19 14:00N 38°02' E 023°31'0 0.0
2017-May-19 13:30N 38°02' E 023°31'0 0.0
2017-May-19 13:00N 38°02' E 023°31'0 0.0
2017-May-19 12:30N 38°02' E 023°31'0 0.5
2017-May-19 12:00N 38°02' E 023°31'0 0.7
2017-May-19 11:30N 38°02' E 023°31'0 0.0
2017-May-19 11:00N 38°02' E 023°31'0 0.0
2017-May-19 10:30N 38°02' E 023°31'0 0.0
2017-May-19 10:01N 38°02' E 023°31'0 0.0
2017-May-19 09:30N 38°02' E 023°31'0 0.1
2017-May-19 09:01N 38°02' E 023°31'0 0.2
2017-May-19 08:30N 38°02' E 023°31'1 2.1
2017-May-19 08:00N 38°01' E 023°32'3 6.6
2017-May-19 07:30N 37°58' E 023°33'3 6.9
2017-May-19 07:01N 37°55' E 023°36'3 6.7
2017-May-19 06:30N 37°52' E 023°37'4 8.6
2017-May-19 06:00N 37°49' E 023°40'4 8.6
2017-May-19 05:30N 37°45' E 023°43'4 8.7
2017-May-19 05:00N 37°41' E 023°46'  

Dump ship's entire track history